Weather observations for the past three days for
St. Inigoes, Webster Field, Naval Electronic Systems Engineering Activity
Imperial (Metric)
Date Time (edt) Wind (mph) Vis. (mi.) Weather Sky Cond. Temperature (ºF) Relative Humidity Wind Chill (°F) Heat Index (°F) Pressure Precipitation (in)
Air Dwpt 6 hour altimeter (in) sea level (mb) 1 hr 3 hr 6 hr
Max. Min.
01 12:53 W 6 10.00 Fair CLR 89.1 72 57% 96 29.98 1015.2
01 11:53 SW 7 10.00 Fair CLR 87.1 73.9 65% 95 29.99 1015.6
01 10:53 W 6 10.00 Fair CLR 84.2 75.2 74% 92 30.01 1016.1
01 09:53 W 5 0.00 Fair CLR 82 75 79% 89 30.01 1016.2
01 08:53 W 5 0.00 Fair CLR 81 73.9 79% 86 30.02 1016.5
01 07:53 W 3 0.00 Fair CLR 78.1 73 78.1 73 85% 81 30.02 1016.4
01 06:53 W 6 10.00 Fair CLR 75.9 72 88% 76 30 1015.8
01 04:53 W 5 10.00 Fair CLR 75.9 72 88% 76 30 1015.7
01 03:53 W 5 10.00 Fair CLR 75.9 72 88% 76 30 1015.9
01 02:53 SW 7 10.00 A Few Clouds FEW110 75.9 73 91% 76 30.02 1016.3
01 01:53 Calm 9.00 Overcast OVC120 75 73.9 79 75 96% 73 30.02 1016.6
31 23:53 Calm 10.00 A Few Clouds FEW110 77 73.9 90% 78 30.04 1017.0
31 22:53 Calm 8.00 Fair CLR 75 73.9 96% 73 30.03 1016.9
31 21:53 SE 3 10.00 Fair CLR 75.9 73.9 94% 75 30.04 1017.2
31 19:53 Calm 10.00 A Few Clouds FEW080 78.1 75 88 78.1 90% 81 30.03 1017.0
31 18:53 Calm 10.00 Fair CLR 82 75 79% 89 30.03 1016.8
31 17:53 NE 7 9.00 Light Rain FEW039 SCT055 BKN075 82 75.9 82% 89 30.04 1017.0
31 16:53 Calm 10.00 Thunderstorm SCT100 87.1 75 67% 97 30.02 1016.5
31 15:53 Vrbl 3 9.00 Light Rain FEW031 SCT085 BKN110 82 75.9 82% 89 30.04 1017.0
31 14:53 SW 5 10.00 Fair CLR 86 75 70% 95 30.04 1017.2
31 12:53 SW 7 10.00 Mostly Cloudy BKN029 84 75 74% 92 30.06 1017.8
31 11:53 Vrbl 5 10.00 Fair CLR 86 73 65% 93 30.07 1018.1
31 10:53 E 3 10.00 Fair CLR 84 72 67% 90 30.07 1018.1
31 09:53 Calm 10.00 Fair CLR 81 73 77% 86 30.07 1018.1
31 08:53 NW 5 10.00 Fair CLR 79 72 79% 82 30.07 1018.1
31 06:53 W 3 10.00 Fair CLR 75 71.1 88% 75 30.05 1017.5
31 05:53 Calm 10.00 A Few Clouds FEW120 75 72 90% 74 30.04 1017.0
31 04:53 Calm 10.00 Overcast OVC110 75.9 73 91% 76 30.04 1017.2
31 03:53 Calm 10.00 A Few Clouds FEW110 75.9 73 91% 76 30.04 1017.1
31 02:53 SW 8 10.00 Fair CLR 77 73 88% 78 30.04 1017.2
31 00:53 SW 7 10.00 Fair CLR 77 73.9 90% 78 30.05 1017.5
30 23:53 S 6 10.00 Fair CLR 78.1 73.9 87% 81 30.06 1017.9
30 22:53 S 7 10.00 Fair CLR 78.1 73 85% 81 30.07 1018.3
30 20:53 Calm 10.00 A Few Clouds FEW110 79 73 82% 82 30.08 1018.3
30 19:53 S 9 10.00 Fair CLR 80.1 73 86 80.1 79% 84 30.06 1017.9
30 18:53 S 8 10.00 Fair CLR 82 73 74% 87 30.06 1017.8
30 17:53 Vrbl 7 10.00 Fair CLR 84 73 70% 90 30.06 1017.8
30 16:53 SE 9 10.00 A Few Clouds FEW075 84.9 73 68% 92 30.05 1017.6
30 15:53 SE 6 10.00 Fair CLR 86 70 59% 91 30.07 1018.2
30 14:53 Vrbl 5 10.00 Fair CLR 86 70 59% 91 30.1 1019.2
30 13:53 S 7 10.00 Fair CLR 84.9 70 84.9 72 61% 89 30.12 1020.0
30 12:53 S 3 10.00 Fair CLR 82.9 70 65% 87 30.14 1020.6
30 09:53 S 6 10.00 A Few Clouds FEW015 77 71.1 82% 79 30.17 1021.7
30 08:53 SW 6 10.00 Partly Cloudy SCT016 77 72 85% 78 30.2 1022.4
30 06:53 Calm 7.00 Fair CLR 66.9 66.9 100% 30.18 1021.9
30 05:53 Calm 8.00 Fair CLR 66 66 100% 30.17 1021.7
30 04:53 Calm 10.00 A Few Clouds FEW019 66.9 66 97% 30.17 1021.7
30 03:53 Calm 10.00 Partly Cloudy SCT016 68 66.9 96% 30.17 1021.7
30 02:53 Calm 10.00 A Few Clouds FEW090 66.9 66.9 100% 30.18 1022.0
30 01:53 Calm 10.00 Mostly Cloudy BKN018 68 66.9 73.9 66 96% 30.19 1022.2
29 23:53 Calm 10.00 Fair CLR 66.9 66 97% 30.18 1022.0
29 22:53 SE 3 10.00 Fair CLR 66 64.9 96% 30.17 1021.6
29 21:53 Calm 10.00 Fair CLR 68 64.9 90% 30.18 1021.7
29 20:53 E 3 10.00 Fair CLR 70 64.9 84% 30.16 1021.3
29 19:53 NE 3 10.00 Fair CLR 73.9 64.9 81 73.9 74% 30.16 1021.1
29 18:53 E 3 10.00 Partly Cloudy SCT080 78.1 68 71% 80 30.15 1021.0
29 17:53 E 5 10.00 Partly Cloudy SCT090 80.1 66.9 64% 82 30.15 1021.0
29 16:53 W 3 10.00 A Few Clouds FEW090 80.1 66 62% 82 30.16 1021.3
29 15:53 E 5 10.00 Fair CLR 81 66 61% 83 30.18 1022.0
Date Time (edt) Wind (mph) Vis. (mi.) Weather Sky Cond. Air Dwpt Max. Min. Relative Humidity Wind Chill (°F) Heat Index (°F) altimeter (in) sea level (mb) 1 hr 3 hr 6 hr
6 hour
Temperature (ºF) Pressure Precipitation (in)